Noemi — V7HY6 — position and weather

sailwx.info

Track history (hours):
 
Tides and Currents Weather Stations Pressure Air Temp Water Temp Dewpoint Dewpoint Depression Visibility Wind Speed Wind Dir Waves Ship Positions

Noemi

Last reported at 2017-Apr-15 06:47 UTC. Time now 2017-Apr-25 06:42 UTC.
Position N 01°15' E 104°02'.
Warning: this ship's position is 9 days out of date.

Length 229 m; draft 8 m.

Type: Tanker. MMSI: 538002335.

Date/timePositionNaut miles runAvg speedWind from/ knotsBaromVisibWave heightAir tempDewpointWater temp
2017-Apr-15 06:47N 01°15' E 104°02'310.6
2017-Apr-15 06:30N 01°14' E 103°59'4 7.2
2017-Apr-15 06:01N 01°15' E 103°56'1 1.3
2017-Apr-15 05:09N 01°15' E 103°55'0 0.0
2017-Apr-15 05:00N 01°15' E 103°55'0 0.1
2017-Apr-15 04:30N 01°15' E 103°55'0 0.0
2017-Apr-15 03:57N 01°15' E 103°55'0 0.1
2017-Apr-15 03:30N 01°15' E 103°55'0 0.2
2017-Apr-15 03:00N 01°15' E 103°55'0 0.2
2017-Apr-15 02:30N 01°15' E 103°55'0 0.1
2017-Apr-15 01:54N 01°15' E 103°55'0 0.0
2017-Apr-15 01:30N 01°15' E 103°55'0 0.0
2017-Apr-15 00:51N 01°15' E 103°55'0 0.0
2017-Apr-15 00:30N 01°15' E 103°55'0 0.0
2017-Apr-15 00:00N 01°15' E 103°55'0 0.0
2017-Apr-14 23:30N 01°15' E 103°55'0 0.0
2017-Apr-14 22:51N 01°15' E 103°55'0 0.0
2017-Apr-14 22:30N 01°15' E 103°55'0 0.0
2017-Apr-14 21:57N 01°15' E 103°55'0 0.0
2017-Apr-14 21:24N 01°15' E 103°55'0 0.0
2017-Apr-14 20:54N 01°15' E 103°55'0 0.2
2017-Apr-14 20:30N 01°15' E 103°55'1 1.1
2017-Apr-14 20:00N 01°15' E 103°56'2 3.4
2017-Apr-14 19:30N 01°15' E 103°57'2 4.3
2017-Apr-14 19:00N 01°13' E 103°56'3 5.1
2017-Apr-14 18:30N 01°12' E 103°54'3 6.4
2017-Apr-14 18:00N 01°11' E 103°51'3 6.4
2017-Apr-14 17:30N 01°10' E 103°48'4 8.3
2017-Apr-14 17:00N 01°07' E 103°45'4 7.4
2017-Apr-14 16:30N 01°05' E 103°42'3 6.7
2017-Apr-14 16:00N 01°03' E 103°39'510.1
2017-Apr-14 15:30N 01°05' E 103°35'612.0
2017-Apr-14 14:59N 01°08' E 103°29'612.4
2017-Apr-14 14:29N 01°11' E 103°24'6112.4
2017-Apr-14 09:34N 01°44' E 102°33'112.1
2017-Apr-14 09:28N 01°45' E 102°32'611.6
2017-Apr-14 08:57N 01°47' E 102°26'511.7
2017-Apr-14 08:30N 01°49' E 102°21'  
Track history (hours):
 
Tides and Currents Weather Stations Pressure Air Temp Water Temp Dewpoint Dewpoint Depression Visibility Wind Speed Wind Dir Waves Ship Positions

Noemi

Last reported at 2017-Apr-15 06:47 UTC. Time now 2017-Apr-25 06:42 UTC.
Position N 01°15' E 104°02'.
Warning: this ship's position is 9 days out of date.

Length 229 m; draft 8 m.

Type: Tanker. MMSI: 538002335.

Date/timePositionNaut miles runAvg speedWind from/ knotsBaromVisibWave heightAir tempDewpointWater temp
2017-Apr-15 06:47N 01°15' E 104°02'310.6
2017-Apr-15 06:30N 01°14' E 103°59'4 7.2
2017-Apr-15 06:01N 01°15' E 103°56'1 1.3
2017-Apr-15 05:09N 01°15' E 103°55'0 0.0
2017-Apr-15 05:00N 01°15' E 103°55'0 0.1
2017-Apr-15 04:30N 01°15' E 103°55'0 0.0
2017-Apr-15 03:57N 01°15' E 103°55'0 0.1
2017-Apr-15 03:30N 01°15' E 103°55'0 0.2
2017-Apr-15 03:00N 01°15' E 103°55'0 0.2
2017-Apr-15 02:30N 01°15' E 103°55'0 0.1
2017-Apr-15 01:54N 01°15' E 103°55'0 0.0
2017-Apr-15 01:30N 01°15' E 103°55'0 0.0
2017-Apr-15 00:51N 01°15' E 103°55'0 0.0
2017-Apr-15 00:30N 01°15' E 103°55'0 0.0
2017-Apr-15 00:00N 01°15' E 103°55'0 0.0
2017-Apr-14 23:30N 01°15' E 103°55'0 0.0
2017-Apr-14 22:51N 01°15' E 103°55'0 0.0
2017-Apr-14 22:30N 01°15' E 103°55'0 0.0
2017-Apr-14 21:57N 01°15' E 103°55'0 0.0
2017-Apr-14 21:24N 01°15' E 103°55'0 0.0
2017-Apr-14 20:54N 01°15' E 103°55'0 0.2
2017-Apr-14 20:30N 01°15' E 103°55'1 1.1
2017-Apr-14 20:00N 01°15' E 103°56'2 3.4
2017-Apr-14 19:30N 01°15' E 103°57'2 4.3
2017-Apr-14 19:00N 01°13' E 103°56'3 5.1
2017-Apr-14 18:30N 01°12' E 103°54'3 6.4
2017-Apr-14 18:00N 01°11' E 103°51'3 6.4
2017-Apr-14 17:30N 01°10' E 103°48'4 8.3
2017-Apr-14 17:00N 01°07' E 103°45'4 7.4
2017-Apr-14 16:30N 01°05' E 103°42'3 6.7
2017-Apr-14 16:00N 01°03' E 103°39'510.1
2017-Apr-14 15:30N 01°05' E 103°35'612.0
2017-Apr-14 14:59N 01°08' E 103°29'612.4
2017-Apr-14 14:29N 01°11' E 103°24'6112.4
2017-Apr-14 09:34N 01°44' E 102°33'112.1
2017-Apr-14 09:28N 01°45' E 102°32'611.6
2017-Apr-14 08:57N 01°47' E 102°26'511.7
2017-Apr-14 08:30N 01°49' E 102°21'  

Dump ship's entire track history